sensor_id;sensor_type;location;lat;lon;timestamp;P1;durP1;ratioP1;P2;durP2;ratioP2
67274;SDS011;55463;52.324;5.122;2022-11-18T00:01:13;6.45;;;2.90;;
67274;SDS011;55463;52.324;5.122;2022-11-18T00:03:40;7.63;;;2.72;;
67274;SDS011;55463;52.324;5.122;2022-11-18T00:06:06;9.10;;;2.70;;
67274;SDS011;55463;52.324;5.122;2022-11-18T00:08:35;5.57;;;2.80;;
67274;SDS011;55463;52.324;5.122;2022-11-18T00:11:07;6.70;;;3.00;;
67274;SDS011;55463;52.324;5.122;2022-11-18T00:13:34;5.93;;;2.90;;
67274;SDS011;55463;52.324;5.122;2022-11-18T00:16:19;4.50;;;2.95;;
67274;SDS011;55463;52.324;5.122;2022-11-18T00:18:45;7.15;;;3.25;;
67274;SDS011;55463;52.324;5.122;2022-11-18T00:21:10;8.40;;;3.28;;
67274;SDS011;55463;52.324;5.122;2022-11-18T00:23:36;6.13;;;2.70;;
67274;SDS011;55463;52.324;5.122;2022-11-18T00:26:03;5.28;;;2.65;;
67274;SDS011;55463;52.324;5.122;2022-11-18T00:28:29;5.25;;;2.70;;
67274;SDS011;55463;52.324;5.122;2022-11-18T00:30:59;5.13;;;2.67;;
67274;SDS011;55463;52.324;5.122;2022-11-18T00:33:29;5.10;;;2.85;;
67274;SDS011;55463;52.324;5.122;2022-11-18T00:35:54;4.90;;;2.72;;
67274;SDS011;55463;52.324;5.122;2022-11-18T00:38:20;14.65;;;3.35;;
67274;SDS011;55463;52.324;5.122;2022-11-18T00:40:46;6.05;;;2.72;;
67274;SDS011;55463;52.324;5.122;2022-11-18T00:43:11;5.30;;;3.45;;
67274;SDS011;55463;52.324;5.122;2022-11-18T00:45:37;6.30;;;2.88;;
67274;SDS011;55463;52.324;5.122;2022-11-18T00:48:02;3.97;;;2.83;;
67274;SDS011;55463;52.324;5.122;2022-11-18T00:50:27;4.15;;;2.83;;
67274;SDS011;55463;52.324;5.122;2022-11-18T00:52:53;4.07;;;2.80;;
67274;SDS011;55463;52.324;5.122;2022-11-18T00:55:18;6.10;;;2.67;;
67274;SDS011;55463;52.324;5.122;2022-11-18T00:57:44;5.53;;;3.20;;
67274;SDS011;55463;52.324;5.122;2022-11-18T01:00:09;3.67;;;2.78;;
67274;SDS011;55463;52.324;5.122;2022-11-18T01:02:35;7.40;;;3.03;;
67274;SDS011;55463;52.324;5.122;2022-11-18T01:05:00;8.15;;;2.88;;
67274;SDS011;55463;52.324;5.122;2022-11-18T01:07:25;8.23;;;3.42;;
67274;SDS011;55463;52.324;5.122;2022-11-18T01:09:51;5.68;;;3.25;;
67274;SDS011;55463;52.324;5.122;2022-11-18T01:12:16;5.90;;;3.20;;
67274;SDS011;55463;52.324;5.122;2022-11-18T01:15:00;3.45;;;2.65;;
67274;SDS011;55463;52.324;5.122;2022-11-18T01:17:28;6.20;;;3.08;;
67274;SDS011;55463;52.324;5.122;2022-11-18T01:19:54;6.10;;;3.08;;
67274;SDS011;55463;52.324;5.122;2022-11-18T01:22:19;9.05;;;3.22;;
67274;SDS011;55463;52.324;5.122;2022-11-18T01:24:44;6.30;;;3.38;;
67274;SDS011;55463;52.324;5.122;2022-11-18T01:27:10;10.30;;;3.53;;
67274;SDS011;55463;52.324;5.122;2022-11-18T01:29:35;8.45;;;3.30;;
67274;SDS011;55463;52.324;5.122;2022-11-18T01:32:01;8.48;;;3.30;;
67274;SDS011;55463;52.324;5.122;2022-11-18T01:34:26;8.82;;;3.30;;
67274;SDS011;55463;52.324;5.122;2022-11-18T01:36:53;7.03;;;3.10;;
67274;SDS011;55463;52.324;5.122;2022-11-18T01:39:18;6.40;;;3.55;;
67274;SDS011;55463;52.324;5.122;2022-11-18T01:41:43;7.80;;;3.10;;
67274;SDS011;55463;52.324;5.122;2022-11-18T01:47:12;7.88;;;3.30;;
67274;SDS011;55463;52.324;5.122;2022-11-18T01:49:37;6.65;;;3.22;;
67274;SDS011;55463;52.324;5.122;2022-11-18T01:52:04;8.05;;;3.33;;
67274;SDS011;55463;52.324;5.122;2022-11-18T01:54:31;7.32;;;3.53;;
67274;SDS011;55463;52.324;5.122;2022-11-18T01:57:02;9.00;;;3.30;;
67274;SDS011;55463;52.324;5.122;2022-11-18T01:59:33;9.10;;;3.60;;
67274;SDS011;55463;52.324;5.122;2022-11-18T02:02:02;8.40;;;3.30;;
67274;SDS011;55463;52.324;5.122;2022-11-18T02:04:31;6.55;;;3.30;;
67274;SDS011;55463;52.324;5.122;2022-11-18T02:06:57;5.45;;;3.20;;
67274;SDS011;55463;52.324;5.122;2022-11-18T02:09:22;6.07;;;3.65;;
67274;SDS011;55463;52.324;5.122;2022-11-18T02:11:48;10.80;;;3.78;;
67274;SDS011;55463;52.324;5.122;2022-11-18T02:14:24;10.63;;;4.15;;
67274;SDS011;55463;52.324;5.122;2022-11-18T02:30:11;6.68;;;3.33;;
67274;SDS011;55463;52.324;5.122;2022-11-18T02:32:48;10.13;;;4.45;;
67274;SDS011;55463;52.324;5.122;2022-11-18T02:40:36;8.05;;;3.85;;
67274;SDS011;55463;52.324;5.122;2022-11-18T02:43:14;8.07;;;3.83;;
67274;SDS011;55463;52.324;5.122;2022-11-18T02:45:45;10.55;;;4.05;;
67274;SDS011;55463;52.324;5.122;2022-11-18T02:48:14;11.00;;;3.95;;
67274;SDS011;55463;52.324;5.122;2022-11-18T02:50:42;8.75;;;4.07;;
67274;SDS011;55463;52.324;5.122;2022-11-18T02:53:09;8.68;;;3.95;;
67274;SDS011;55463;52.324;5.122;2022-11-18T02:55:38;9.80;;;4.20;;
67274;SDS011;55463;52.324;5.122;2022-11-18T02:58:04;11.20;;;4.50;;
67274;SDS011;55463;52.324;5.122;2022-11-18T03:00:30;12.80;;;4.75;;
67274;SDS011;55463;52.324;5.122;2022-11-18T03:02:57;10.50;;;4.07;;
67274;SDS011;55463;52.324;5.122;2022-11-18T03:07:57;11.05;;;4.32;;
67274;SDS011;55463;52.324;5.122;2022-11-18T03:10:34;10.98;;;4.38;;
67274;SDS011;55463;52.324;5.122;2022-11-18T03:13:10;10.93;;;4.40;;
67274;SDS011;55463;52.324;5.122;2022-11-18T03:18:41;13.65;;;4.60;;
67274;SDS011;55463;52.324;5.122;2022-11-18T03:21:51;13.20;;;5.50;;
67274;SDS011;55463;52.324;5.122;2022-11-18T03:24:17;10.00;;;4.50;;
67274;SDS011;55463;52.324;5.122;2022-11-18T03:26:50;12.07;;;4.80;;
67274;SDS011;55463;52.324;5.122;2022-11-18T03:29:27;7.53;;;4.22;;
67274;SDS011;55463;52.324;5.122;2022-11-18T03:31:59;9.80;;;4.95;;
67274;SDS011;55463;52.324;5.122;2022-11-18T03:34:46;10.73;;;4.72;;
67274;SDS011;55463;52.324;5.122;2022-11-18T03:37:15;11.77;;;4.65;;
67274;SDS011;55463;52.324;5.122;2022-11-18T03:39:45;10.55;;;4.95;;
67274;SDS011;55463;52.324;5.122;2022-11-18T03:44:51;8.40;;;5.10;;
67274;SDS011;55463;52.324;5.122;2022-11-18T03:47:25;12.93;;;5.28;;
67274;SDS011;55463;52.324;5.122;2022-11-18T03:50:07;9.55;;;4.63;;
67274;SDS011;55463;52.324;5.122;2022-11-18T03:52:39;9.57;;;5.43;;
67274;SDS011;55463;52.324;5.122;2022-11-18T03:55:10;12.40;;;5.40;;
67274;SDS011;55463;52.324;5.122;2022-11-18T04:00:20;10.07;;;4.80;;
67274;SDS011;55463;52.324;5.122;2022-11-18T04:02:46;9.77;;;5.00;;
67274;SDS011;55463;52.324;5.122;2022-11-18T04:05:13;12.93;;;5.72;;
67274;SDS011;55463;52.324;5.122;2022-11-18T04:10:17;11.47;;;6.27;;
67274;SDS011;55463;52.324;5.122;2022-11-18T04:12:47;12.20;;;5.80;;
67274;SDS011;55463;52.324;5.122;2022-11-18T04:15:18;14.10;;;5.63;;
67274;SDS011;55463;52.324;5.122;2022-11-18T04:17:43;12.23;;;5.35;;
67274;SDS011;55463;52.324;5.122;2022-11-18T04:20:13;15.55;;;6.15;;
67274;SDS011;55463;52.324;5.122;2022-11-18T04:22:42;16.00;;;5.95;;
67274;SDS011;55463;52.324;5.122;2022-11-18T04:25:08;10.40;;;5.85;;
67274;SDS011;55463;52.324;5.122;2022-11-18T04:27:33;13.45;;;5.65;;
67274;SDS011;55463;52.324;5.122;2022-11-18T04:29:59;12.77;;;5.90;;
67274;SDS011;55463;52.324;5.122;2022-11-18T04:32:24;9.02;;;5.35;;
67274;SDS011;55463;52.324;5.122;2022-11-18T04:34:49;11.93;;;5.60;;
67274;SDS011;55463;52.324;5.122;2022-11-18T04:37:15;13.63;;;5.72;;
67274;SDS011;55463;52.324;5.122;2022-11-18T04:39:40;19.00;;;6.82;;
67274;SDS011;55463;52.324;5.122;2022-11-18T04:42:05;11.32;;;5.97;;
67274;SDS011;55463;52.324;5.122;2022-11-18T04:44:31;15.80;;;6.15;;
67274;SDS011;55463;52.324;5.122;2022-11-18T04:47:02;15.13;;;6.40;;
67274;SDS011;55463;52.324;5.122;2022-11-18T04:49:29;14.25;;;7.00;;
67274;SDS011;55463;52.324;5.122;2022-11-18T04:51:55;9.35;;;6.00;;
67274;SDS011;55463;52.324;5.122;2022-11-18T04:54:21;11.63;;;6.28;;
67274;SDS011;55463;52.324;5.122;2022-11-18T04:56:47;16.73;;;6.35;;
67274;SDS011;55463;52.324;5.122;2022-11-18T04:59:12;15.27;;;6.82;;
67274;SDS011;55463;52.324;5.122;2022-11-18T05:01:39;11.18;;;6.03;;
67274;SDS011;55463;52.324;5.122;2022-11-18T05:04:04;16.63;;;6.15;;
67274;SDS011;55463;52.324;5.122;2022-11-18T05:06:31;19.23;;;6.30;;
67274;SDS011;55463;52.324;5.122;2022-11-18T05:08:58;12.00;;;6.03;;
67274;SDS011;55463;52.324;5.122;2022-11-18T05:11:25;10.65;;;5.75;;
67274;SDS011;55463;52.324;5.122;2022-11-18T05:14:09;13.30;;;6.65;;
67274;SDS011;55463;52.324;5.122;2022-11-18T05:16:35;16.38;;;6.30;;
67274;SDS011;55463;52.324;5.122;2022-11-18T05:19:00;12.00;;;6.55;;
67274;SDS011;55463;52.324;5.122;2022-11-18T05:21:27;14.23;;;6.38;;
67274;SDS011;55463;52.324;5.122;2022-11-18T05:23:52;17.30;;;6.57;;
67274;SDS011;55463;52.324;5.122;2022-11-18T05:26:17;10.43;;;6.32;;
67274;SDS011;55463;52.324;5.122;2022-11-18T05:28:43;16.42;;;6.25;;
67274;SDS011;55463;52.324;5.122;2022-11-18T05:31:09;13.85;;;6.63;;
67274;SDS011;55463;52.324;5.122;2022-11-18T05:33:36;11.20;;;6.18;;
67274;SDS011;55463;52.324;5.122;2022-11-18T05:36:05;21.23;;;6.32;;
67274;SDS011;55463;52.324;5.122;2022-11-18T05:38:32;16.05;;;6.20;;
67274;SDS011;55463;52.324;5.122;2022-11-18T05:40:58;11.60;;;5.97;;
67274;SDS011;55463;52.324;5.122;2022-11-18T05:43:24;14.88;;;6.10;;
67274;SDS011;55463;52.324;5.122;2022-11-18T05:45:50;12.23;;;6.30;;
67274;SDS011;55463;52.324;5.122;2022-11-18T05:48:16;13.90;;;6.10;;
67274;SDS011;55463;52.324;5.122;2022-11-18T05:50:44;16.58;;;6.18;;
67274;SDS011;55463;52.324;5.122;2022-11-18T05:53:11;13.80;;;5.75;;
67274;SDS011;55463;52.324;5.122;2022-11-18T05:55:41;16.17;;;6.57;;
67274;SDS011;55463;52.324;5.122;2022-11-18T05:58:16;14.48;;;5.68;;
67274;SDS011;55463;52.324;5.122;2022-11-18T06:00:41;14.98;;;5.53;;
67274;SDS011;55463;52.324;5.122;2022-11-18T06:03:11;14.88;;;6.05;;
67274;SDS011;55463;52.324;5.122;2022-11-18T06:05:42;9.77;;;5.63;;
67274;SDS011;55463;52.324;5.122;2022-11-18T06:08:07;12.05;;;6.40;;
67274;SDS011;55463;52.324;5.122;2022-11-18T06:10:35;14.55;;;5.25;;
67274;SDS011;55463;52.324;5.122;2022-11-18T06:13:05;18.08;;;5.40;;
67274;SDS011;55463;52.324;5.122;2022-11-18T06:15:39;12.23;;;5.72;;
67274;SDS011;55463;52.324;5.122;2022-11-18T06:18:09;8.32;;;4.93;;
67274;SDS011;55463;52.324;5.122;2022-11-18T06:20:40;11.18;;;5.75;;
67274;SDS011;55463;52.324;5.122;2022-11-18T06:23:06;11.23;;;4.85;;
67274;SDS011;55463;52.324;5.122;2022-11-18T06:25:31;11.07;;;5.40;;
67274;SDS011;55463;52.324;5.122;2022-11-18T06:27:58;14.02;;;5.70;;
67274;SDS011;55463;52.324;5.122;2022-11-18T06:30:26;12.80;;;5.03;;
67274;SDS011;55463;52.324;5.122;2022-11-18T06:32:51;7.78;;;4.50;;
67274;SDS011;55463;52.324;5.122;2022-11-18T06:35:17;15.60;;;5.50;;
67274;SDS011;55463;52.324;5.122;2022-11-18T06:37:42;11.82;;;5.22;;
67274;SDS011;55463;52.324;5.122;2022-11-18T06:40:08;7.90;;;4.55;;
67274;SDS011;55463;52.324;5.122;2022-11-18T06:42:33;16.58;;;6.72;;
67274;SDS011;55463;52.324;5.122;2022-11-18T06:45:17;15.63;;;4.93;;
67274;SDS011;55463;52.324;5.122;2022-11-18T06:47:43;15.40;;;4.93;;
67274;SDS011;55463;52.324;5.122;2022-11-18T06:50:08;10.35;;;5.07;;
67274;SDS011;55463;52.324;5.122;2022-11-18T06:52:34;9.35;;;5.07;;
67274;SDS011;55463;52.324;5.122;2022-11-18T06:54:59;10.77;;;4.65;;
67274;SDS011;55463;52.324;5.122;2022-11-18T06:57:24;15.50;;;4.63;;
67274;SDS011;55463;52.324;5.122;2022-11-18T06:59:50;11.65;;;5.10;;
67274;SDS011;55463;52.324;5.122;2022-11-18T07:02:15;8.70;;;4.35;;
67274;SDS011;55463;52.324;5.122;2022-11-18T07:04:43;6.60;;;4.47;;
67274;SDS011;55463;52.324;5.122;2022-11-18T07:07:08;12.18;;;4.85;;
67274;SDS011;55463;52.324;5.122;2022-11-18T07:09:34;12.02;;;4.65;;
67274;SDS011;55463;52.324;5.122;2022-11-18T07:12:00;13.95;;;4.63;;
67274;SDS011;55463;52.324;5.122;2022-11-18T07:14:26;8.40;;;4.95;;
67274;SDS011;55463;52.324;5.122;2022-11-18T07:16:51;9.30;;;4.47;;
67274;SDS011;55463;52.324;5.122;2022-11-18T07:19:17;10.00;;;4.68;;
67274;SDS011;55463;52.324;5.122;2022-11-18T07:21:42;10.77;;;4.65;;
67274;SDS011;55463;52.324;5.122;2022-11-18T07:24:10;9.00;;;5.00;;
67274;SDS011;55463;52.324;5.122;2022-11-18T07:26:37;8.10;;;4.47;;
67274;SDS011;55463;52.324;5.122;2022-11-18T07:29:02;15.38;;;5.25;;
67274;SDS011;55463;52.324;5.122;2022-11-18T07:31:28;9.52;;;4.93;;
67274;SDS011;55463;52.324;5.122;2022-11-18T07:33:53;9.77;;;4.75;;
67274;SDS011;55463;52.324;5.122;2022-11-18T07:36:22;11.88;;;4.95;;
67274;SDS011;55463;52.324;5.122;2022-11-18T07:41:16;10.55;;;4.45;;
67274;SDS011;55463;52.324;5.122;2022-11-18T07:43:43;10.13;;;4.50;;
67274;SDS011;55463;52.324;5.122;2022-11-18T07:46:17;12.50;;;4.53;;
67274;SDS011;55463;52.324;5.122;2022-11-18T07:48:44;8.73;;;4.47;;
67274;SDS011;55463;52.324;5.122;2022-11-18T07:51:11;13.25;;;5.05;;
67274;SDS011;55463;52.324;5.122;2022-11-18T07:53:38;9.95;;;4.85;;
67274;SDS011;55463;52.324;5.122;2022-11-18T07:56:03;13.10;;;4.72;;
67274;SDS011;55463;52.324;5.122;2022-11-18T07:58:29;7.82;;;4.13;;
67274;SDS011;55463;52.324;5.122;2022-11-18T08:00:55;11.40;;;4.75;;
67274;SDS011;55463;52.324;5.122;2022-11-18T08:03:24;9.75;;;4.40;;
67274;SDS011;55463;52.324;5.122;2022-11-18T08:05:50;9.43;;;4.20;;
67274;SDS011;55463;52.324;5.122;2022-11-18T08:08:16;10.77;;;4.38;;
67274;SDS011;55463;52.324;5.122;2022-11-18T08:10:41;9.48;;;4.18;;
67274;SDS011;55463;52.324;5.122;2022-11-18T08:13:07;11.90;;;4.78;;
67274;SDS011;55463;52.324;5.122;2022-11-18T08:15:32;10.25;;;4.38;;
67274;SDS011;55463;52.324;5.122;2022-11-18T08:17:57;8.88;;;4.25;;
67274;SDS011;55463;52.324;5.122;2022-11-18T08:20:23;8.15;;;4.60;;
67274;SDS011;55463;52.324;5.122;2022-11-18T08:22:51;12.05;;;4.05;;
67274;SDS011;55463;52.324;5.122;2022-11-18T08:25:16;13.23;;;4.30;;
67274;SDS011;55463;52.324;5.122;2022-11-18T08:27:42;7.35;;;4.18;;
67274;SDS011;55463;52.324;5.122;2022-11-18T08:30:07;9.93;;;3.97;;
67274;SDS011;55463;52.324;5.122;2022-11-18T08:32:33;8.25;;;4.00;;
67274;SDS011;55463;52.324;5.122;2022-11-18T08:34:59;16.30;;;4.32;;
67274;SDS011;55463;52.324;5.122;2022-11-18T08:37:24;9.07;;;3.95;;
67274;SDS011;55463;52.324;5.122;2022-11-18T08:39:50;19.77;;;4.00;;
67274;SDS011;55463;52.324;5.122;2022-11-18T08:42:15;15.45;;;4.22;;
67274;SDS011;55463;52.324;5.122;2022-11-18T08:44:40;9.10;;;3.83;;
67274;SDS011;55463;52.324;5.122;2022-11-18T08:47:06;10.57;;;4.70;;
67274;SDS011;55463;52.324;5.122;2022-11-18T08:49:31;8.88;;;4.22;;
67274;SDS011;55463;52.324;5.122;2022-11-18T08:51:56;7.22;;;3.53;;
67274;SDS011;55463;52.324;5.122;2022-11-18T08:54:22;11.25;;;4.60;;
67274;SDS011;55463;52.324;5.122;2022-11-18T08:56:47;9.93;;;3.90;;
67274;SDS011;55463;52.324;5.122;2022-11-18T08:59:14;8.93;;;3.80;;
67274;SDS011;55463;52.324;5.122;2022-11-18T09:01:40;7.50;;;4.07;;
67274;SDS011;55463;52.324;5.122;2022-11-18T09:04:07;13.23;;;4.13;;
67274;SDS011;55463;52.324;5.122;2022-11-18T09:06:34;11.65;;;4.45;;
67274;SDS011;55463;52.324;5.122;2022-11-18T09:08:59;8.43;;;3.70;;
67274;SDS011;55463;52.324;5.122;2022-11-18T09:11:25;13.60;;;3.72;;
67274;SDS011;55463;52.324;5.122;2022-11-18T09:13:56;13.55;;;4.15;;
67274;SDS011;55463;52.324;5.122;2022-11-18T09:18:49;9.20;;;3.92;;
67274;SDS011;55463;52.324;5.122;2022-11-18T09:21:15;15.07;;;3.67;;
67274;SDS011;55463;52.324;5.122;2022-11-18T09:23:40;11.15;;;4.38;;
67274;SDS011;55463;52.324;5.122;2022-11-18T09:26:13;9.77;;;3.80;;
67274;SDS011;55463;52.324;5.122;2022-11-18T09:28:40;11.27;;;3.95;;
67274;SDS011;55463;52.324;5.122;2022-11-18T09:31:15;15.82;;;3.75;;
67274;SDS011;55463;52.324;5.122;2022-11-18T09:33:41;8.15;;;4.55;;
67274;SDS011;55463;52.324;5.122;2022-11-18T09:36:11;8.18;;;3.80;;
67274;SDS011;55463;52.324;5.122;2022-11-18T09:38:38;6.72;;;3.83;;
67274;SDS011;55463;52.324;5.122;2022-11-18T09:41:06;8.88;;;3.90;;
67274;SDS011;55463;52.324;5.122;2022-11-18T09:46:30;12.63;;;3.80;;
67274;SDS011;55463;52.324;5.122;2022-11-18T09:49:01;12.60;;;3.80;;
67274;SDS011;55463;52.324;5.122;2022-11-18T09:51:45;10.77;;;3.60;;
67274;SDS011;55463;52.324;5.122;2022-11-18T09:54:25;9.90;;;3.53;;
67274;SDS011;55463;52.324;5.122;2022-11-18T09:56:58;6.57;;;4.20;;
67274;SDS011;55463;52.324;5.122;2022-11-18T09:59:24;9.38;;;4.22;;
67274;SDS011;55463;52.324;5.122;2022-11-18T10:01:53;11.85;;;3.58;;
67274;SDS011;55463;52.324;5.122;2022-11-18T10:04:22;10.43;;;4.55;;
67274;SDS011;55463;52.324;5.122;2022-11-18T10:06:48;12.40;;;4.53;;
67274;SDS011;55463;52.324;5.122;2022-11-18T10:12:13;7.53;;;3.88;;
67274;SDS011;55463;52.324;5.122;2022-11-18T10:15:18;12.38;;;4.47;;
67274;SDS011;55463;52.324;5.122;2022-11-18T10:25:51;15.77;;;4.50;;
67274;SDS011;55463;52.324;5.122;2022-11-18T10:28:20;13.68;;;5.03;;
67274;SDS011;55463;52.324;5.122;2022-11-18T10:30:48;9.43;;;4.85;;
67274;SDS011;55463;52.324;5.122;2022-11-18T10:33:32;12.50;;;4.70;;
67274;SDS011;55463;52.324;5.122;2022-11-18T10:36:08;14.35;;;4.82;;
67274;SDS011;55463;52.324;5.122;2022-11-18T10:39:06;8.70;;;4.28;;
67274;SDS011;55463;52.324;5.122;2022-11-18T10:41:52;15.13;;;4.85;;
67274;SDS011;55463;52.324;5.122;2022-11-18T10:44:33;8.07;;;4.80;;
67274;SDS011;55463;52.324;5.122;2022-11-18T10:49:45;10.25;;;4.40;;
67274;SDS011;55463;52.324;5.122;2022-11-18T10:52:11;12.25;;;4.57;;
67274;SDS011;55463;52.324;5.122;2022-11-18T10:54:37;7.95;;;4.25;;
67274;SDS011;55463;52.324;5.122;2022-11-18T10:59:38;9.93;;;4.28;;
67274;SDS011;55463;52.324;5.122;2022-11-18T11:04:55;12.02;;;4.47;;
67274;SDS011;55463;52.324;5.122;2022-11-18T11:07:34;9.32;;;3.95;;
67274;SDS011;55463;52.324;5.122;2022-11-18T11:12:32;9.00;;;3.75;;
67274;SDS011;55463;52.324;5.122;2022-11-18T11:15:04;8.65;;;3.70;;
67274;SDS011;55463;52.324;5.122;2022-11-18T11:17:43;13.73;;;3.75;;
67274;SDS011;55463;52.324;5.122;2022-11-18T11:20:33;11.93;;;3.63;;
67274;SDS011;55463;52.324;5.122;2022-11-18T11:23:00;13.45;;;3.78;;
67274;SDS011;55463;52.324;5.122;2022-11-18T11:25:31;10.65;;;3.70;;
67274;SDS011;55463;52.324;5.122;2022-11-18T11:31:29;7.80;;;3.63;;
67274;SDS011;55463;52.324;5.122;2022-11-18T11:41:54;9.25;;;3.53;;
67274;SDS011;55463;52.324;5.122;2022-11-18T11:47:37;12.25;;;3.72;;
67274;SDS011;55463;52.324;5.122;2022-11-18T11:53:19;14.82;;;4.20;;
67274;SDS011;55463;52.324;5.122;2022-11-18T12:04:19;11.82;;;3.58;;
67274;SDS011;55463;52.324;5.122;2022-11-18T12:06:39;12.88;;;3.80;;
67274;SDS011;55463;52.324;5.122;2022-11-18T12:14:56;11.75;;;4.45;;
67274;SDS011;55463;52.324;5.122;2022-11-18T12:17:41;10.80;;;4.53;;
67274;SDS011;55463;52.324;5.122;2022-11-18T12:28:12;9.82;;;4.60;;
67274;SDS011;55463;52.324;5.122;2022-11-18T12:31:24;14.77;;;4.95;;
67274;SDS011;55463;52.324;5.122;2022-11-18T12:33:56;12.25;;;4.70;;
67274;SDS011;55463;52.324;5.122;2022-11-18T12:36:33;14.95;;;4.78;;
67274;SDS011;55463;52.324;5.122;2022-11-18T12:41:55;12.38;;;4.32;;
67274;SDS011;55463;52.324;5.122;2022-11-18T12:44:43;13.73;;;4.88;;
67274;SDS011;55463;52.324;5.122;2022-11-18T12:47:11;17.52;;;6.03;;
67274;SDS011;55463;52.324;5.122;2022-11-18T12:50:13;12.57;;;5.65;;
67274;SDS011;55463;52.324;5.122;2022-11-18T12:55:21;11.52;;;6.40;;
67274;SDS011;55463;52.324;5.122;2022-11-18T12:57:49;12.35;;;6.05;;
67274;SDS011;55463;52.324;5.122;2022-11-18T13:02:50;13.45;;;6.50;;
67274;SDS011;55463;52.324;5.122;2022-11-18T13:05:24;17.05;;;6.72;;
67274;SDS011;55463;52.324;5.122;2022-11-18T13:08:06;17.38;;;7.97;;
67274;SDS011;55463;52.324;5.122;2022-11-18T13:13:20;16.48;;;7.90;;
67274;SDS011;55463;52.324;5.122;2022-11-18T13:15:48;17.95;;;8.00;;
67274;SDS011;55463;52.324;5.122;2022-11-18T13:18:33;17.25;;;8.75;;
67274;SDS011;55463;52.324;5.122;2022-11-18T13:21:18;18.35;;;8.45;;
67274;SDS011;55463;52.324;5.122;2022-11-18T13:24:04;20.05;;;8.52;;
67274;SDS011;55463;52.324;5.122;2022-11-18T13:26:30;16.60;;;8.02;;
67274;SDS011;55463;52.324;5.122;2022-11-18T13:34:48;20.30;;;9.35;;
67274;SDS011;55463;52.324;5.122;2022-11-18T13:37:20;23.30;;;9.82;;
67274;SDS011;55463;52.324;5.122;2022-11-18T13:39:51;13.65;;;9.75;;
67274;SDS011;55463;52.324;5.122;2022-11-18T13:42:18;21.02;;;10.73;;
67274;SDS011;55463;52.324;5.122;2022-11-18T13:44:50;16.90;;;10.20;;
67274;SDS011;55463;52.324;5.122;2022-11-18T13:47:20;18.08;;;10.50;;
67274;SDS011;55463;52.324;5.122;2022-11-18T13:49:59;18.98;;;10.40;;
67274;SDS011;55463;52.324;5.122;2022-11-18T13:52:37;21.55;;;10.73;;
67274;SDS011;55463;52.324;5.122;2022-11-18T13:55:30;18.80;;;10.55;;
67274;SDS011;55463;52.324;5.122;2022-11-18T14:01:03;23.30;;;10.85;;
67274;SDS011;55463;52.324;5.122;2022-11-18T14:03:35;20.70;;;11.02;;
67274;SDS011;55463;52.324;5.122;2022-11-18T14:06:04;20.23;;;11.63;;
67274;SDS011;55463;52.324;5.122;2022-11-18T14:08:36;19.13;;;11.23;;
67274;SDS011;55463;52.324;5.122;2022-11-18T14:11:03;21.50;;;11.73;;
67274;SDS011;55463;52.324;5.122;2022-11-18T14:13:32;20.30;;;11.50;;
67274;SDS011;55463;52.324;5.122;2022-11-18T14:18:46;18.67;;;11.43;;
67274;SDS011;55463;52.324;5.122;2022-11-18T14:21:13;21.15;;;12.10;;
67274;SDS011;55463;52.324;5.122;2022-11-18T14:23:50;20.52;;;10.95;;
67274;SDS011;55463;52.324;5.122;2022-11-18T14:26:18;16.63;;;11.30;;
67274;SDS011;55463;52.324;5.122;2022-11-18T14:28:54;23.20;;;10.85;;
67274;SDS011;55463;52.324;5.122;2022-11-18T14:31:22;16.67;;;10.98;;
67274;SDS011;55463;52.324;5.122;2022-11-18T14:34:32;21.67;;;10.38;;
67274;SDS011;55463;52.324;5.122;2022-11-18T14:36:48;19.77;;;10.85;;
67274;SDS011;55463;52.324;5.122;2022-11-18T14:41:49;16.60;;;11.18;;
67274;SDS011;55463;52.324;5.122;2022-11-18T14:44:15;21.45;;;11.45;;
67274;SDS011;55463;52.324;5.122;2022-11-18T14:46:43;17.85;;;11.32;;
67274;SDS011;55463;52.324;5.122;2022-11-18T14:49:12;17.23;;;11.43;;
67274;SDS011;55463;52.324;5.122;2022-11-18T14:51:40;14.63;;;11.50;;
67274;SDS011;55463;52.324;5.122;2022-11-18T14:54:05;14.57;;;11.73;;
67274;SDS011;55463;52.324;5.122;2022-11-18T14:56:31;23.17;;;11.73;;
67274;SDS011;55463;52.324;5.122;2022-11-18T14:58:58;16.92;;;11.18;;
67274;SDS011;55463;52.324;5.122;2022-11-18T15:01:24;21.88;;;11.82;;
67274;SDS011;55463;52.324;5.122;2022-11-18T15:03:51;20.98;;;11.93;;
67274;SDS011;55463;52.324;5.122;2022-11-18T15:06:17;21.15;;;12.23;;
67274;SDS011;55463;52.324;5.122;2022-11-18T15:08:44;19.77;;;12.13;;
67274;SDS011;55463;52.324;5.122;2022-11-18T15:11:11;17.30;;;11.73;;
67274;SDS011;55463;52.324;5.122;2022-11-18T15:13:37;22.65;;;12.35;;
67274;SDS011;55463;52.324;5.122;2022-11-18T15:16:36;22.23;;;12.55;;
67274;SDS011;55463;52.324;5.122;2022-11-18T15:18:56;19.75;;;11.73;;
67274;SDS011;55463;52.324;5.122;2022-11-18T15:21:24;18.77;;;11.70;;
67274;SDS011;55463;52.324;5.122;2022-11-18T15:23:50;19.63;;;11.68;;
67274;SDS011;55463;52.324;5.122;2022-11-18T15:26:18;23.67;;;11.75;;
67274;SDS011;55463;52.324;5.122;2022-11-18T15:28:49;23.92;;;11.77;;
67274;SDS011;55463;52.324;5.122;2022-11-18T15:31:16;20.63;;;12.80;;
67274;SDS011;55463;52.324;5.122;2022-11-18T15:33:41;16.50;;;11.63;;
67274;SDS011;55463;52.324;5.122;2022-11-18T15:36:11;17.83;;;11.43;;
67274;SDS011;55463;52.324;5.122;2022-11-18T15:38:37;16.42;;;12.75;;
67274;SDS011;55463;52.324;5.122;2022-11-18T15:41:03;20.15;;;11.93;;
67274;SDS011;55463;52.324;5.122;2022-11-18T15:43:29;21.58;;;12.57;;
67274;SDS011;55463;52.324;5.122;2022-11-18T15:45:57;24.13;;;13.93;;
67274;SDS011;55463;52.324;5.122;2022-11-18T15:48:23;20.38;;;12.43;;
67274;SDS011;55463;52.324;5.122;2022-11-18T15:50:48;18.30;;;12.75;;
67274;SDS011;55463;52.324;5.122;2022-11-18T15:53:14;21.63;;;13.00;;
67274;SDS011;55463;52.324;5.122;2022-11-18T15:55:39;25.02;;;13.60;;
67274;SDS011;55463;52.324;5.122;2022-11-18T15:58:04;18.70;;;12.75;;
67274;SDS011;55463;52.324;5.122;2022-11-18T16:00:30;23.92;;;13.35;;
67274;SDS011;55463;52.324;5.122;2022-11-18T16:02:55;22.77;;;12.93;;
67274;SDS011;55463;52.324;5.122;2022-11-18T16:05:20;19.58;;;12.32;;
67274;SDS011;55463;52.324;5.122;2022-11-18T16:07:46;24.35;;;12.32;;
67274;SDS011;55463;52.324;5.122;2022-11-18T16:10:11;22.55;;;11.73;;
67274;SDS011;55463;52.324;5.122;2022-11-18T16:12:55;20.05;;;11.90;;
67274;SDS011;55463;52.324;5.122;2022-11-18T16:15:21;21.15;;;11.50;;
67274;SDS011;55463;52.324;5.122;2022-11-18T16:18:05;20.95;;;11.77;;
67274;SDS011;55463;52.324;5.122;2022-11-18T16:20:30;16.85;;;11.40;;
67274;SDS011;55463;52.324;5.122;2022-11-18T16:22:56;23.55;;;11.77;;
67274;SDS011;55463;52.324;5.122;2022-11-18T16:25:21;20.90;;;11.27;;
67274;SDS011;55463;52.324;5.122;2022-11-18T16:27:47;20.67;;;12.50;;
67274;SDS011;55463;52.324;5.122;2022-11-18T16:30:13;17.83;;;11.75;;
67274;SDS011;55463;52.324;5.122;2022-11-18T16:32:57;22.23;;;13.85;;
67274;SDS011;55463;52.324;5.122;2022-11-18T16:35:24;26.40;;;15.18;;
67274;SDS011;55463;52.324;5.122;2022-11-18T16:37:50;21.77;;;13.00;;
67274;SDS011;55463;52.324;5.122;2022-11-18T16:40:15;22.20;;;13.75;;
67274;SDS011;55463;52.324;5.122;2022-11-18T16:42:41;27.10;;;13.93;;
67274;SDS011;55463;52.324;5.122;2022-11-18T16:45:06;22.35;;;12.05;;
67274;SDS011;55463;52.324;5.122;2022-11-18T16:47:32;23.17;;;13.50;;
67274;SDS011;55463;52.324;5.122;2022-11-18T16:49:57;24.38;;;13.63;;
67274;SDS011;55463;52.324;5.122;2022-11-18T16:52:22;22.95;;;12.23;;
67274;SDS011;55463;52.324;5.122;2022-11-18T16:54:48;24.58;;;13.73;;
67274;SDS011;55463;52.324;5.122;2022-11-18T16:57:13;23.52;;;13.45;;